Time;durP1;ratioP1;P1;durP2;ratioP2;P2;SDS_P1;SDS_P2;PMS_P1;PMS_P2;Temp;Humidity;BMP_temperature;BMP_pressure;BME280_temperature;BME280_humidity;BME280_pressure;Samples;Min_cycle;Max_cycle;Signal;HPM_P1;HPM_P2
2020/12/02 00:00:18;;;;;;;27.40;18.02;;;7.90;92.70;;;;;;5068768;28;20078;-42
2020/12/02 00:03:10;;;;;;;26.42;17.05;;;7.90;92.80;;;;;;5068034;28;20078;-43
2020/12/02 00:05:36;;;;;;;28.05;19.40;;;7.80;92.80;;;;;;5068469;28;20056;-43
2020/12/02 00:08:14;;;;;;;28.52;18.17;;;7.90;92.90;;;;;;5069699;28;20103;-44
2020/12/02 00:10:40;;;;;;;32.05;19.52;;;7.80;92.90;;;;;;5068709;28;20357;-45
2020/12/02 00:13:09;;;;;;;30.92;20.13;;;7.80;92.80;;;;;;5068174;28;20391;-44
2020/12/02 00:15:34;;;;;;;30.05;20.13;;;7.80;92.80;;;;;;5069045;28;20471;-43
2020/12/02 00:18:00;;;;;;;31.60;20.98;;;7.80;92.90;;;;;;5069746;28;20028;-44
2020/12/02 00:20:26;;;;;;;30.98;19.10;;;7.80;92.80;;;;;;5068565;28;20036;-44
2020/12/02 00:22:53;;;;;;;30.52;19.90;;;7.80;92.90;;;;;;5069077;28;20093;-44
2020/12/02 00:25:19;;;;;;;30.90;20.40;;;7.70;92.90;;;;;;5068683;28;20035;-44
2020/12/02 00:27:44;;;;;;;30.75;19.75;;;7.70;93.00;;;;;;5068756;28;20051;-44
2020/12/02 00:30:14;;;;;;;30.58;19.13;;;7.70;93.00;;;;;;5068175;28;20534;-44
2020/12/02 00:32:43;;;;;;;30.90;20.13;;;7.70;93.00;;;;;;5068662;28;20570;-45
2020/12/02 00:35:14;;;;;;;32.78;20.10;;;7.60;93.10;;;;;;5067820;28;20070;-45
2020/12/02 00:37:40;;;;;;;31.90;20.65;;;7.60;93.10;;;;;;5068368;28;20059;-45
2020/12/02 00:40:06;;;;;;;34.95;21.13;;;7.60;93.10;;;;;;5068374;28;20515;-43
2020/12/02 00:42:32;;;;;;;35.08;21.00;;;7.60;93.20;;;;;;5068583;28;20066;-44
2020/12/02 00:44:57;;;;;;;31.60;20.17;;;7.60;93.30;;;;;;5068504;28;20614;-44
2020/12/02 00:47:25;;;;;;;31.17;20.08;;;7.60;93.30;;;;;;5067705;28;20285;-45
2020/12/02 00:49:54;;;;;;;31.85;21.13;;;7.60;93.30;;;;;;5068414;28;20503;-43
2020/12/02 00:52:20;;;;;;;38.35;22.20;;;7.60;93.60;;;;;;5067871;28;20388;-43
2020/12/02 00:54:46;;;;;;;35.85;21.48;;;7.60;93.40;;;;;;5068558;28;20066;-43
2020/12/02 00:57:17;;;;;;;31.02;19.38;;;7.60;93.40;;;;;;5067822;28;20027;-43
2020/12/02 00:59:48;;;;;;;39.38;22.50;;;7.50;93.40;;;;;;5068729;28;20032;-44
2020/12/02 01:02:40;;;;;;;31.58;20.35;;;7.50;93.50;;;;;;5067840;28;20117;-44
2020/12/02 01:05:14;;;;;;;31.15;20.08;;;7.50;93.60;;;;;;5068923;28;20021;-43
2020/12/02 01:07:42;;;;;;;30.98;19.02;;;7.50;93.60;;;;;;5068974;28;20037;-44
2020/12/02 01:10:09;;;;;;;32.30;19.48;;;7.50;93.60;;;;;;5068138;28;20023;-44
2020/12/02 01:12:37;;;;;;;30.58;20.00;;;7.50;93.60;;;;;;5069065;28;20025;-44
2020/12/02 01:15:07;;;;;;;28.88;18.75;;;7.50;93.60;;;;;;5072773;28;20060;-44
2020/12/02 01:17:32;;;;;;;30.13;19.10;;;7.50;93.60;;;;;;5072334;28;20021;-44
2020/12/02 01:19:58;;;;;;;35.63;21.85;;;7.50;93.70;;;;;;5072516;28;20547;-43
2020/12/02 01:22:44;;;;;;;33.13;20.17;;;7.50;93.70;;;;;;5071210;28;20510;-43
2020/12/02 01:25:19;;;;;;;37.05;21.35;;;7.50;93.60;;;;;;5071560;28;20036;-44
2020/12/02 01:27:58;;;;;;;38.80;21.33;;;7.50;93.60;;;;;;5072615;28;20033;-43
2020/12/02 01:30:24;;;;;;;32.90;19.52;;;7.50;93.70;;;;;;5071178;28;20502;-43
2020/12/02 01:32:50;;;;;;;32.22;19.85;;;7.50;93.70;;;;;;5071803;28;20480;-44
2020/12/02 01:35:20;;;;;;;29.25;18.15;;;7.50;93.80;;;;;;5071255;28;20086;-44
2020/12/02 01:37:50;;;;;;;27.42;18.20;;;7.50;93.80;;;;;;5071207;28;20029;-44
2020/12/02 01:40:24;;;;;;;26.73;17.17;;;7.50;93.80;;;;;;5071404;28;20040;-43
2020/12/02 01:42:55;;;;;;;33.40;21.02;;;7.50;93.90;;;;;;5071874;28;20028;-43
2020/12/02 01:45:52;;;;;;;28.55;18.90;;;7.50;93.90;;;;;;5070893;28;20129;-44
2020/12/02 01:48:23;;;;;;;34.00;20.13;;;7.50;93.80;;;;;;5071443;28;20789;-43
2020/12/02 01:51:30;;;;;;;31.60;20.05;;;7.60;93.80;;;;;;5071167;28;20484;-43
2020/12/02 01:54:07;;;;;;;31.95;19.23;;;7.50;93.80;;;;;;5070922;28;20036;-44
2020/12/02 01:56:53;;;;;;;36.90;20.63;;;7.50;93.80;;;;;;5071394;28;20028;-44
2020/12/02 01:59:29;;;;;;;38.13;22.02;;;7.50;93.80;;;;;;5070888;28;20032;-44
2020/12/02 02:02:36;;;;;;;38.80;22.17;;;7.50;93.80;;;;;;5071185;28;20040;-45
2020/12/02 02:05:13;;;;;;;39.17;21.23;;;7.50;93.80;;;;;;4988715;28;20433;-43
2020/12/02 02:07:39;;;;;;;37.50;22.30;;;7.50;93.80;;;;;;5063889;28;20040;-43
2020/12/02 02:10:35;;;;;;;40.67;22.75;;;7.50;93.90;;;;;;5070972;28;20492;-44
2020/12/02 02:13:19;;;;;;;38.95;21.45;;;7.50;93.90;;;;;;5069157;28;20036;-44
2020/12/02 02:16:06;;;;;;;34.00;20.70;;;7.40;93.90;;;;;;5071653;28;20440;-44
2020/12/02 02:18:31;;;;;;;38.72;21.23;;;7.50;94.00;;;;;;5071265;28;20066;-44
2020/12/02 02:21:03;;;;;;;32.47;18.90;;;7.50;93.90;;;;;;5070950;28;20028;-44
2020/12/02 02:23:29;;;;;;;33.92;19.48;;;7.50;94.00;;;;;;5070768;28;20036;-44
2020/12/02 02:26:19;;;;;;;38.42;20.85;;;7.50;94.00;;;;;;5069399;28;20470;-44
2020/12/02 02:29:09;;;;;;;34.53;20.80;;;7.40;94.00;;;;;;5071088;28;20104;-44
2020/12/02 02:31:58;;;;;;;31.73;19.38;;;7.40;94.00;;;;;;5070826;28;20037;-43
2020/12/02 02:34:24;;;;;;;31.10;18.58;;;7.40;94.00;;;;;;5069718;28;20446;-44
2020/12/02 02:36:51;;;;;;;37.63;21.45;;;7.50;94.00;;;;;;5071077;28;20060;-44
2020/12/02 02:39:17;;;;;;;32.75;18.73;;;7.50;94.00;;;;;;5070243;28;20028;-44
2020/12/02 02:41:43;;;;;;;33.17;19.55;;;7.50;93.90;;;;;;5070035;28;20046;-44
2020/12/02 02:44:10;;;;;;;33.03;18.40;;;7.50;94.00;;;;;;5070389;28;20028;-44
2020/12/02 02:46:36;;;;;;;34.28;20.98;;;7.50;94.00;;;;;;5070808;28;20028;-44
2020/12/02 02:49:04;;;;;;;30.00;18.67;;;7.50;93.90;;;;;;5070229;28;20025;-44
2020/12/02 02:51:29;;;;;;;31.58;19.67;;;7.50;93.90;;;;;;5070424;28;20533;-44
2020/12/02 02:53:55;;;;;;;29.75;18.65;;;7.50;93.90;;;;;;5070006;28;20021;-44
2020/12/02 02:56:21;;;;;;;30.83;19.08;;;7.50;94.00;;;;;;5069802;28;20380;-44
2020/12/02 02:58:47;;;;;;;34.10;20.50;;;7.50;93.90;;;;;;5070601;28;20577;-43
2020/12/02 03:01:12;;;;;;;34.97;20.45;;;7.50;93.90;;;;;;5069060;28;20064;-45
2020/12/02 03:03:38;;;;;;;32.90;20.20;;;7.50;93.90;;;;;;5070490;28;20755;-44
2020/12/02 03:06:05;;;;;;;32.80;20.50;;;7.50;93.90;;;;;;5052602;28;20463;-44
2020/12/02 03:08:32;;;;;;;31.73;19.98;;;7.50;93.90;;;;;;5069496;28;20040;-43
2020/12/02 03:11:00;;;;;;;32.85;20.45;;;7.50;93.90;;;;;;5070390;28;20035;-44
2020/12/02 03:13:37;;;;;;;34.30;20.48;;;7.50;93.90;;;;;;5069736;28;20083;-44
2020/12/02 03:16:15;;;;;;;31.90;19.85;;;7.50;93.90;;;;;;5069651;28;20035;-44
2020/12/02 03:18:42;;;;;;;31.25;18.73;;;7.50;93.90;;;;;;5069888;28;20036;-43
2020/12/02 03:21:13;;;;;;;29.58;17.63;;;7.50;93.90;;;;;;5069776;28;20036;-44
2020/12/02 03:23:38;;;;;;;32.13;19.52;;;7.50;93.90;;;;;;5069328;28;20020;-44
2020/12/02 03:26:04;;;;;;;30.90;19.98;;;7.50;93.90;;;;;;5069699;28;20027;-44
2020/12/02 03:28:30;;;;;;;33.03;19.75;;;7.50;93.80;;;;;;5069288;28;20476;-44
2020/12/02 03:31:02;;;;;;;34.08;19.80;;;7.50;93.90;;;;;;5069432;28;20020;-44
2020/12/02 03:33:28;;;;;;;33.30;21.17;;;7.50;93.90;;;;;;5069272;28;20447;-44
2020/12/02 03:35:54;;;;;;;36.95;20.63;;;7.50;93.90;;;;;;5069536;28;20031;-44
2020/12/02 03:38:20;;;;;;;32.33;20.73;;;7.50;93.90;;;;;;5069018;28;20028;-43
2020/12/02 03:40:45;;;;;;;33.35;19.80;;;7.50;93.80;;;;;;5069199;28;20106;-44
2020/12/02 03:43:11;;;;;;;34.88;22.08;;;7.50;93.80;;;;;;5068718;28;20127;-44
2020/12/02 03:45:41;;;;;;;30.77;18.55;;;7.50;93.80;;;;;;5069511;28;20024;-44
2020/12/02 03:48:09;;;;;;;28.08;17.85;;;7.50;93.90;;;;;;5069111;28;20045;-44
2020/12/02 03:50:34;;;;;;;29.77;18.02;;;7.50;93.90;;;;;;5069250;28;20025;-44
2020/12/02 03:53:00;;;;;;;29.45;18.27;;;7.50;93.90;;;;;;5069259;28;20043;-44
2020/12/02 03:55:25;;;;;;;36.30;21.08;;;7.50;93.90;;;;;;5068516;28;20047;-43
2020/12/02 03:57:51;;;;;;;35.17;21.23;;;7.50;93.90;;;;;;5069135;28;20083;-44
2020/12/02 04:00:19;;;;;;;32.75;20.50;;;7.50;93.80;;;;;;5068850;28;20130;-44
2020/12/02 04:02:44;;;;;;;32.33;20.23;;;7.50;93.80;;;;;;5069060;28;20086;-44
2020/12/02 04:05:10;;;;;;;35.90;21.02;;;7.50;93.80;;;;;;5068505;28;20021;-43
2020/12/02 04:07:36;;;;;;;30.98;20.00;;;7.50;93.80;;;;;;5069250;28;20463;-44
2020/12/02 04:10:02;;;;;;;28.20;17.52;;;7.40;93.80;;;;;;5069272;28;20027;-44
2020/12/02 04:12:27;;;;;;;30.17;19.63;;;7.40;93.90;;;;;;5068136;28;20108;-44
2020/12/02 04:14:53;;;;;;;34.83;19.10;;;7.40;93.90;;;;;;5068752;28;20119;-44
2020/12/02 04:17:18;;;;;;;31.65;19.00;;;7.50;93.90;;;;;;5068219;28;20120;-43
2020/12/02 04:19:44;;;;;;;25.95;17.17;;;7.50;93.90;;;;;;5068613;28;20024;-44
2020/12/02 04:22:10;;;;;;;34.50;20.75;;;7.50;93.90;;;;;;5067962;28;20403;-44
2020/12/02 04:24:35;;;;;;;34.15;20.70;;;7.50;93.90;;;;;;5068598;28;20070;-44
2020/12/02 04:27:01;;;;;;;30.65;18.75;;;7.50;93.80;;;;;;5068611;28;20028;-44
2020/12/02 04:29:26;;;;;;;30.60;18.55;;;7.50;93.80;;;;;;5068308;28;20029;-43
2020/12/02 04:31:52;;;;;;;25.83;16.42;;;7.40;93.90;;;;;;5068906;28;20020;-44
2020/12/02 04:34:17;;;;;;;38.28;21.00;;;7.50;93.90;;;;;;5067679;28;20029;-44
2020/12/02 04:36:48;;;;;;;38.92;21.35;;;7.50;93.90;;;;;;5068966;28;20035;-44
2020/12/02 04:39:14;;;;;;;42.15;22.67;;;7.50;93.90;;;;;;5067369;28;20070;-44
2020/12/02 04:41:40;;;;;;;33.28;19.58;;;7.50;93.90;;;;;;5068190;28;20060;-44
2020/12/02 04:44:09;;;;;;;42.53;21.75;;;7.40;93.90;;;;;;5068633;28;20365;-44
2020/12/02 04:46:34;;;;;;;44.15;22.85;;;7.40;93.90;;;;;;5067899;28;20028;-44
2020/12/02 04:49:18;;;;;;;36.83;21.10;;;7.40;93.90;;;;;;5068024;28;20094;-43
2020/12/02 04:51:44;;;;;;;42.22;22.50;;;7.40;94.00;;;;;;5068522;28;20096;-44
2020/12/02 04:54:11;;;;;;;42.47;21.58;;;7.40;94.10;;;;;;5067696;28;20028;-44
2020/12/02 04:56:42;;;;;;;45.20;22.75;;;7.40;94.10;;;;;;5068494;28;20093;-43
2020/12/02 04:59:08;;;;;;;44.05;23.63;;;7.40;94.10;;;;;;5068375;28;20048;-44
2020/12/02 05:01:44;;;;;;;42.78;22.40;;;7.40;94.10;;;;;;5067951;28;20067;-43
2020/12/02 05:04:25;;;;;;;38.60;21.63;;;7.40;94.20;;;;;;5067764;28;20037;-43
2020/12/02 05:07:15;;;;;;;37.90;21.33;;;7.30;94.20;;;;;;5068333;28;20468;-43
2020/12/02 05:10:00;;;;;;;40.47;22.45;;;7.30;94.20;;;;;;5068250;28;20032;-44
2020/12/02 05:12:37;;;;;;;42.28;22.92;;;7.30;94.30;;;;;;5067659;28;20460;-43
2020/12/02 05:15:15;;;;;;;40.75;21.42;;;7.30;94.30;;;;;;5067889;28;20032;-44
2020/12/02 05:17:42;;;;;;;47.97;23.52;;;7.30;94.30;;;;;;5068240;28;20024;-44
2020/12/02 05:20:22;;;;;;;45.30;24.05;;;7.30;94.30;;;;;;5067832;28;20031;-44
2020/12/02 05:22:50;;;;;;;44.97;22.80;;;7.30;94.40;;;;;;5068047;28;20037;-43
2020/12/02 05:25:21;;;;;;;43.97;21.77;;;7.30;94.40;;;;;;5067704;28;20029;-44
2020/12/02 05:27:49;;;;;;;42.20;22.05;;;7.30;94.70;;;;;;5068309;28;20044;-44
2020/12/02 05:30:26;;;;;;;45.00;22.50;;;7.20;94.50;;;;;;5067559;28;20028;-44
2020/12/02 05:33:24;;;;;;;48.83;22.67;;;7.30;94.50;;;;;;5068613;28;20028;-44
2020/12/02 05:36:10;;;;;;;42.05;20.95;;;7.30;94.50;;;;;;5022602;28;20064;-44
2020/12/02 05:38:39;;;;;;;37.55;19.45;;;7.20;94.50;;;;;;5068256;28;20025;-44
2020/12/02 05:41:10;;;;;;;37.75;19.27;;;7.20;94.50;;;;;;5068052;28;20099;-45
2020/12/02 05:43:59;;;;;;;39.92;20.02;;;7.30;94.60;;;;;;5067439;28;20426;-44
2020/12/02 05:46:29;;;;;;;39.65;20.35;;;7.30;94.60;;;;;;5067380;28;20523;-44
2020/12/02 05:49:03;;;;;;;42.33;21.17;;;7.30;94.50;;;;;;5068209;28;20028;-44
2020/12/02 05:51:28;;;;;;;42.15;20.98;;;7.30;94.50;;;;;;5067080;28;20116;-43
2020/12/02 05:54:06;;;;;;;40.88;19.90;;;7.30;94.50;;;;;;5068097;28;20111;-44
2020/12/02 05:56:32;;;;;;;40.42;20.17;;;7.30;94.40;;;;;;5068263;28;20047;-44
2020/12/02 05:58:57;;;;;;;36.05;18.40;;;7.30;94.40;;;;;;5067722;28;20491;-43
2020/12/02 06:01:23;;;;;;;35.90;19.13;;;7.30;94.40;;;;;;5069926;28;20027;-44
2020/12/02 06:03:55;;;;;;;38.63;20.40;;;7.30;94.40;;;;;;5070974;28;20020;-43
2020/12/02 06:06:21;;;;;;;41.35;20.75;;;7.30;94.40;;;;;;5071130;28;20024;-43
2020/12/02 06:08:50;;;;;;;42.45;21.42;;;7.30;94.40;;;;;;5071248;28;20039;-43
2020/12/02 06:11:15;;;;;;;40.05;21.20;;;7.30;94.40;;;;;;5070552;28;20068;-44
2020/12/02 06:13:48;;;;;;;38.90;20.50;;;7.30;94.50;;;;;;5071577;28;20063;-44
2020/12/02 06:16:40;;;;;;;41.13;20.63;;;7.30;94.50;;;;;;5070641;28;20028;-44
2020/12/02 06:19:14;;;;;;;45.60;22.42;;;7.30;94.50;;;;;;5070527;28;20028;-44
2020/12/02 06:21:50;;;;;;;40.40;21.42;;;7.20;94.40;;;;;;5071470;28;20032;-44
2020/12/02 06:24:41;;;;;;;43.97;21.98;;;7.20;94.50;;;;;;5070726;28;20063;-43
2020/12/02 06:27:16;;;;;;;45.10;22.02;;;7.20;94.60;;;;;;5070375;28;20024;-44
2020/12/02 06:29:42;;;;;;;48.45;23.27;;;7.20;94.60;;;;;;5070924;28;20787;-44
2020/12/02 06:32:20;;;;;;;46.25;22.48;;;7.20;94.60;;;;;;5069762;28;20024;-43
2020/12/02 06:34:47;;;;;;;46.70;21.92;;;7.20;94.60;;;;;;5071087;28;20032;-43
2020/12/02 06:37:16;;;;;;;40.13;20.83;;;7.20;94.70;;;;;;5070579;28;20171;-44
2020/12/02 06:39:53;;;;;;;43.28;21.13;;;7.20;94.70;;;;;;5070313;28;20038;-43
2020/12/02 06:42:40;;;;;;;39.78;20.58;;;7.20;94.70;;;;;;5070133;28;20070;-44
2020/12/02 06:45:23;;;;;;;42.30;22.10;;;7.20;94.80;;;;;;5071179;28;20016;-44
2020/12/02 06:47:48;;;;;;;41.60;21.02;;;7.20;94.80;;;;;;5070631;28;20510;-44
2020/12/02 06:50:17;;;;;;;34.80;19.73;;;7.20;94.80;;;;;;5070470;28;20064;-44
2020/12/02 06:52:43;;;;;;;36.97;19.15;;;7.20;94.80;;;;;;5064915;28;20029;-44
2020/12/02 06:55:16;;;;;;;41.75;19.90;;;7.20;94.80;;;;;;5053626;28;20032;-43
2020/12/02 06:57:43;;;;;;;41.65;20.10;;;7.20;94.80;;;;;;5052636;28;20098;-43
2020/12/02 07:00:17;;;;;;;45.70;21.45;;;7.20;94.80;;;;;;5049176;28;20070;-43
2020/12/02 07:02:53;;;;;;;34.35;19.33;;;7.20;94.80;;;;;;5047761;28;20044;-43
2020/12/02 07:05:39;;;;;;;40.10;18.58;;;7.20;94.90;;;;;;5049018;28;20036;-45
2020/12/02 07:08:31;;;;;;;37.05;19.50;;;7.20;94.80;;;;;;5049115;28;20047;-43
2020/12/02 07:11:12;;;;;;;35.95;18.80;;;7.10;94.80;;;;;;5048872;28;20024;-44
2020/12/02 07:13:41;;;;;;;30.90;16.48;;;7.10;94.90;;;;;;5049736;28;20376;-44
2020/12/02 07:16:36;;;;;;;31.90;18.05;;;7.10;94.90;;;;;;5048692;28;20099;-43
2020/12/02 07:19:08;;;;;;;40.22;19.25;;;7.10;94.90;;;;;;5036236;28;20025;-43
2020/12/02 07:21:42;;;;;;;33.35;17.80;;;7.20;94.90;;;;;;5048766;28;20048;-44
2020/12/02 07:24:16;;;;;;;30.50;16.58;;;7.20;94.90;;;;;;5057245;28;20028;-43
2020/12/02 07:26:41;;;;;;;38.13;17.65;;;7.10;94.90;;;;;;5059168;28;20021;-43
2020/12/02 07:29:16;;;;;;;30.30;15.95;;;7.20;94.90;;;;;;5051780;28;20025;-43
2020/12/02 07:31:41;;;;;;;25.35;15.05;;;7.20;95.00;;;;;;5049952;28;20167;-44
2020/12/02 07:34:17;;;;;;;26.58;15.43;;;7.20;95.00;;;;;;5049266;28;20116;-44
2020/12/02 07:36:43;;;;;;;29.38;16.52;;;7.20;95.00;;;;;;5049140;28;20105;-44
2020/12/02 07:39:18;;;;;;;31.73;17.42;;;7.20;94.90;;;;;;5049094;28;20158;-43
2020/12/02 07:42:09;;;;;;;31.85;17.05;;;7.20;94.90;;;;;;5049557;28;20099;-43
2020/12/02 07:44:41;;;;;;;33.17;17.42;;;7.20;94.90;;;;;;5049405;28;20032;-44
2020/12/02 07:47:12;;;;;;;29.33;16.52;;;7.20;94.90;;;;;;5049319;28;20025;-43
2020/12/02 07:49:41;;;;;;;29.85;15.85;;;7.20;94.80;;;;;;5049314;28;20025;-44
2020/12/02 07:52:13;;;;;;;29.88;16.25;;;7.20;94.90;;;;;;5048594;28;20029;-43
2020/12/02 07:54:39;;;;;;;29.45;17.05;;;7.20;94.90;;;;;;5049292;28;20024;-44
2020/12/02 07:57:09;;;;;;;27.45;15.82;;;7.20;94.90;;;;;;5048943;28;20025;-44
2020/12/02 07:59:35;;;;;;;28.20;15.75;;;7.20;94.90;;;;;;5055592;28;20037;-44
2020/12/02 08:02:08;;;;;;;29.17;15.27;;;7.20;94.80;;;;;;5054523;28;20040;-44
2020/12/02 08:04:56;;;;;;;25.67;15.00;;;7.20;94.80;;;;;;5048772;28;20060;-44
2020/12/02 08:07:24;;;;;;;28.20;14.95;;;7.20;94.80;;;;;;5048670;28;20047;-43
2020/12/02 08:09:55;;;;;;;32.28;17.05;;;7.20;94.80;;;;;;5048882;28;20024;-44
2020/12/02 08:12:31;;;;;;;29.60;16.15;;;7.20;94.70;;;;;;5050811;28;20127;-44
2020/12/02 08:15:11;;;;;;;25.88;14.27;;;7.20;94.70;;;;;;5059204;28;20020;-43
2020/12/02 08:17:39;;;;;;;32.30;15.10;;;7.10;94.70;;;;;;5028380;28;20079;-44
2020/12/02 08:20:33;;;;;;;27.65;15.30;;;7.20;94.70;;;;;;5029093;28;20063;-44
2020/12/02 08:23:12;;;;;;;28.05;15.32;;;7.10;94.70;;;;;;5028217;28;20033;-45
2020/12/02 08:26:05;;;;;;;27.95;14.48;;;7.20;94.70;;;;;;5028486;28;20362;-45
2020/12/02 08:28:39;;;;;;;28.35;15.18;;;7.20;94.70;;;;;;5028434;28;20033;-44
2020/12/02 08:31:28;;;;;;;27.73;15.15;;;7.20;94.70;;;;;;5028823;28;20026;-44
2020/12/02 08:34:16;;;;;;;26.80;14.35;;;7.20;94.70;;;;;;5032535;28;20044;-44
2020/12/02 08:36:45;;;;;;;26.17;13.35;;;7.20;94.70;;;;;;5056423;28;20089;-43
2020/12/02 08:39:11;;;;;;;25.98;13.98;;;7.20;94.70;;;;;;5066324;28;20111;-44
2020/12/02 08:41:43;;;;;;;28.67;14.75;;;7.20;94.70;;;;;;5068278;28;20599;-45
2020/12/02 08:44:11;;;;;;;;;;;7.30;94.70;;;;;;5067958;28;20048;-44
2020/12/02 08:46:54;;;;;;;22.45;13.00;;;7.30;94.60;;;;;;5063911;28;20354;-44
2020/12/02 08:49:24;;;;;;;28.05;14.20;;;7.20;94.50;;;;;;5067564;28;20028;-43
2020/12/02 08:51:49;;;;;;;23.83;12.73;;;7.30;94.50;;;;;;5068133;28;20111;-44
2020/12/02 08:54:17;;;;;;;28.13;14.25;;;7.20;94.50;;;;;;5048197;28;20031;-44
2020/12/02 08:56:43;;;;;;;22.33;13.32;;;7.30;94.50;;;;;;5048328;28;20025;-43
2020/12/02 08:59:12;;;;;;;24.23;13.93;;;7.30;94.50;;;;;;5047822;28;20028;-45
2020/12/02 09:01:38;;;;;;;26.98;14.35;;;7.20;94.40;;;;;;5047599;28;20464;-44
2020/12/02 09:04:03;;;;;;;29.20;14.63;;;7.30;94.40;;;;;;5048851;28;20131;-44
2020/12/02 09:06:29;;;;;;;25.73;13.40;;;7.30;94.40;;;;;;5047786;28;20025;-44
2020/12/02 09:08:55;;;;;;;23.88;12.85;;;7.30;94.40;;;;;;5051260;28;20029;-44
2020/12/02 09:11:31;;;;;;;22.30;12.40;;;7.30;94.40;;;;;;5057587;28;20056;-44
2020/12/02 09:13:56;;;;;;;27.55;14.50;;;7.30;94.40;;;;;;5056803;28;20145;-44
2020/12/02 09:16:34;;;;;;;30.60;14.63;;;7.30;94.40;;;;;;5067438;28;20476;-45
2020/12/02 09:19:01;;;;;;;30.60;16.52;;;7.40;94.40;;;;;;5068142;28;20064;-44
2020/12/02 09:21:28;;;;;;;30.95;14.73;;;7.40;94.30;;;;;;5065019;28;20067;-44
2020/12/02 09:23:54;;;;;;;31.00;14.80;;;7.30;94.30;;;;;;5068063;28;20025;-44
2020/12/02 09:26:23;;;;;;;31.83;14.35;;;7.30;94.30;;;;;;5067693;28;20037;-43
2020/12/02 09:28:49;;;;;;;28.10;14.07;;;7.40;94.30;;;;;;5067680;28;20036;-43
2020/12/02 09:31:18;;;;;;;29.33;13.43;;;7.30;94.30;;;;;;5067746;28;20028;-44
2020/12/02 09:33:44;;;;;;;25.60;13.10;;;7.40;94.30;;;;;;5068726;28;20368;-44
2020/12/02 09:36:10;;;;;;;24.80;13.32;;;7.40;94.30;;;;;;5071055;28;20119;-43
2020/12/02 09:38:35;;;;;;;25.33;13.05;;;7.40;94.30;;;;;;5071816;28;20486;-44
2020/12/02 09:41:31;;;;;;;28.20;13.75;;;7.40;94.20;;;;;;5071633;28;20044;-43
2020/12/02 09:44:09;;;;;;;22.23;11.90;;;7.40;94.20;;;;;;5071797;28;20040;-44
2020/12/02 09:46:36;;;;;;;22.27;12.80;;;7.50;94.50;;;;;;5071482;28;20033;-44
2020/12/02 09:49:03;;;;;;;24.17;12.75;;;7.50;94.20;;;;;;5052584;28;20131;-44
2020/12/02 09:51:32;;;;;;;21.88;11.75;;;7.50;94.20;;;;;;5053554;28;20486;-44
2020/12/02 09:53:58;;;;;;;18.58;11.13;;;7.50;94.20;;;;;;5061325;28;20037;-43
2020/12/02 09:56:27;;;;;;;19.38;11.90;;;7.50;94.20;;;;;;5064267;28;20039;-44
2020/12/02 09:58:56;;;;;;;19.17;12.15;;;7.60;94.20;;;;;;5071863;28;20028;-43
2020/12/02 10:01:47;;;;;;;21.83;12.07;;;7.60;94.20;;;;;;5070698;28;20090;-43
2020/12/02 10:04:56;;;;;;;19.65;11.27;;;7.60;94.10;;;;;;5070097;28;20079;-44
2020/12/02 10:07:40;;;;;;;19.83;11.80;;;7.60;94.10;;;;;;5070698;28;20035;-44
2020/12/02 10:10:20;;;;;;;18.38;11.60;;;7.60;94.10;;;;;;5070937;28;20050;-44
2020/12/02 10:13:04;;;;;;;18.08;10.65;;;7.60;94.10;;;;;;5070971;28;20035;-45
2020/12/02 10:15:45;;;;;;;18.02;11.15;;;7.60;94.00;;;;;;5070668;28;20035;-43
2020/12/02 10:18:39;;;;;;;15.30;10.02;;;7.60;94.00;;;;;;5069916;28;20037;-44
2020/12/02 10:21:26;;;;;;;16.70;10.07;;;7.70;94.00;;;;;;5071233;28;20028;-44
2020/12/02 10:24:26;;;;;;;15.68;10.18;;;7.70;94.00;;;;;;5071027;28;20036;-44
2020/12/02 10:27:12;;;;;;;18.10;10.10;;;7.70;94.10;;;;;;5071053;28;20029;-44
2020/12/02 10:30:16;;;;;;;17.55;10.40;;;7.70;94.00;;;;;;5069939;28;20058;-43
2020/12/02 10:33:07;;;;;;;16.55;10.60;;;7.70;94.00;;;;;;4968572;28;20613;-44
2020/12/02 10:35:35;;;;;;;17.40;10.63;;;7.70;94.00;;;;;;5047035;28;20039;-44
2020/12/02 10:38:05;;;;;;;19.80;11.57;;;7.70;94.00;;;;;;5047194;28;20052;-43
2020/12/02 10:40:39;;;;;;;17.02;11.20;;;7.70;93.90;;;;;;5050109;28;20052;-44
2020/12/02 10:43:19;;;;;;;16.00;10.32;;;7.70;93.90;;;;;;5050336;28;20548;-44
2020/12/02 10:45:49;;;;;;;19.50;10.80;;;7.70;93.90;;;;;;5049349;28;20025;-44
2020/12/02 10:48:42;;;;;;;15.85;10.23;;;7.70;94.00;;;;;;5049966;28;20032;-44
2020/12/02 10:51:13;;;;;;;15.88;9.93;;;7.70;94.00;;;;;;5062695;28;20090;-45
2020/12/02 10:53:40;;;;;;;14.52;8.82;;;7.70;94.00;;;;;;5061732;28;20368;-43
2020/12/02 10:56:07;;;;;;;15.27;9.90;;;7.70;94.00;;;;;;5055791;28;20174;-44
2020/12/02 10:58:33;;;;;;;16.27;10.40;;;7.70;94.00;;;;;;5059422;28;20031;-44
2020/12/02 11:01:01;;;;;;;15.25;10.23;;;7.80;94.10;;;;;;5066916;28;20036;-44
2020/12/02 11:03:26;;;;;;;14.40;9.73;;;7.80;94.00;;;;;;5069747;28;20116;-44
2020/12/02 11:05:59;;;;;;;17.17;11.00;;;7.80;94.10;;;;;;5070407;28;20119;-43
2020/12/02 11:08:55;;;;;;;15.70;9.95;;;7.80;94.10;;;;;;5068900;28;20028;-44
2020/12/02 11:11:30;;;;;;;16.02;10.43;;;7.80;94.10;;;;;;5069583;28;20032;-43
2020/12/02 11:14:17;;;;;;;16.95;10.55;;;7.80;94.10;;;;;;5062720;28;20475;-43
2020/12/02 11:16:50;;;;;;;19.58;11.50;;;7.80;94.00;;;;;;5049797;28;20079;-43
2020/12/02 11:19:30;;;;;;;20.98;11.38;;;7.80;94.00;;;;;;5049324;28;20544;-44
2020/12/02 11:22:14;;;;;;;23.08;12.80;;;7.80;94.00;;;;;;5049522;28;20037;-43
2020/12/02 11:25:07;;;;;;;18.35;11.80;;;7.80;93.90;;;;;;5049543;28;20551;-43
2020/12/02 11:27:32;;;;;;;18.67;11.88;;;7.80;93.90;;;;;;5049566;28;20025;-43
2020/12/02 11:29:58;;;;;;;23.63;13.40;;;7.80;93.90;;;;;;5049983;28;20108;-44
2020/12/02 11:32:48;;;;;;;19.05;12.02;;;7.80;93.90;;;;;;5049117;28;20115;-44
2020/12/02 11:35:29;;;;;;;21.20;11.98;;;7.80;93.90;;;;;;5048891;28;20087;-43
2020/12/02 11:38:19;;;;;;;19.67;12.23;;;7.80;93.80;;;;;;5049847;28;20075;-44
2020/12/02 11:41:11;;;;;;;19.08;11.05;;;7.80;93.80;;;;;;5049522;28;20061;-44
2020/12/02 11:43:48;;;;;;;21.15;12.90;;;7.80;93.80;;;;;;5049274;28;20459;-43
2020/12/02 11:46:16;;;;;;;23.05;12.80;;;7.80;93.90;;;;;;5048903;28;20480;-43
2020/12/02 11:49:00;;;;;;;17.45;11.23;;;7.80;93.90;;;;;;5049611;28;20028;-44
2020/12/02 11:51:36;;;;;;;18.52;11.68;;;7.80;93.90;;;;;;5048918;28;20497;-44
2020/12/02 11:54:10;;;;;;;18.58;11.98;;;7.80;93.90;;;;;;5049450;28;20021;-44
2020/12/02 11:56:47;;;;;;;16.83;11.35;;;7.80;93.90;;;;;;5048932;28;20025;-44
2020/12/02 11:59:16;;;;;;;17.17;10.00;;;7.70;94.00;;;;;;5048783;28;20762;-44
2020/12/02 12:02:08;;;;;;;18.35;11.00;;;7.70;94.00;;;;;;5049935;28;20041;-44
2020/12/02 12:04:33;;;;;;;17.35;11.65;;;7.70;94.00;;;;;;5039476;28;20033;-44
2020/12/02 12:07:07;;;;;;;20.17;11.38;;;7.70;94.00;;;;;;5069250;28;20025;-44
2020/12/02 12:09:37;;;;;;;18.63;11.07;;;7.70;94.00;;;;;;5068682;28;20024;-43
2020/12/02 12:12:22;;;;;;;19.85;10.60;;;7.70;94.00;;;;;;5069050;28;20158;-43
2020/12/02 12:14:56;;;;;;;18.48;10.57;;;7.80;94.10;;;;;;5069092;28;20012;-43
2020/12/02 12:17:32;;;;;;;21.85;11.52;;;7.70;94.10;;;;;;5059641;28;20033;-44
2020/12/02 12:20:24;;;;;;;21.95;12.02;;;7.70;94.00;;;;;;5048513;28;20496;-43
2020/12/02 12:23:22;;;;;;;16.53;10.63;;;7.70;94.00;;;;;;5048692;28;20037;-42
2020/12/02 12:25:50;;;;;;;20.73;11.60;;;7.70;94.00;;;;;;5048221;28;20102;-42
2020/12/02 12:28:21;;;;;;;18.70;11.48;;;7.70;94.00;;;;;;5048668;28;20029;-44
2020/12/02 12:30:46;;;;;;;19.27;11.52;;;7.70;94.00;;;;;;5048379;28;20059;-44
2020/12/02 12:33:25;;;;;;;19.85;11.88;;;7.80;94.10;;;;;;5048264;28;20053;-43
2020/12/02 12:35:58;;;;;;;21.40;11.60;;;7.80;94.00;;;;;;5048988;28;20503;-44
2020/12/02 12:38:35;;;;;;;18.48;11.95;;;7.80;94.00;;;;;;5047611;28;20376;-44
2020/12/02 12:41:29;;;;;;;19.92;11.43;;;7.80;94.00;;;;;;5048518;28;20694;-44
2020/12/02 12:44:27;;;;;;;17.05;11.00;;;7.80;94.00;;;;;;5048821;28;20086;-44
2020/12/02 12:47:13;;;;;;;20.42;11.82;;;7.80;94.00;;;;;;5048932;28;20070;-43
2020/12/02 12:49:38;;;;;;;21.95;12.13;;;7.70;93.90;;;;;;5048596;28;20036;-43
2020/12/02 12:52:05;;;;;;;19.75;12.02;;;7.80;94.10;;;;;;5048067;28;20033;-44
2020/12/02 12:54:31;;;;;;;24.42;12.75;;;7.80;94.00;;;;;;5048351;28;20079;-44
2020/12/02 12:57:00;;;;;;;21.40;12.30;;;7.80;94.00;;;;;;5048311;28;20029;-43
2020/12/02 12:59:26;;;;;;;22.00;12.75;;;7.80;94.00;;;;;;5047515;28;20045;-44
2020/12/02 13:01:56;;;;;;;22.75;12.57;;;7.70;94.00;;;;;;5048371;28;20091;-43
2020/12/02 13:04:24;;;;;;;23.25;12.82;;;7.80;94.10;;;;;;5047523;28;20032;-44
2020/12/02 13:07:13;;;;;;;23.13;12.20;;;7.80;94.10;;;;;;5047818;28;20900;-44
2020/12/02 13:09:49;;;;;;;25.60;12.73;;;7.80;94.10;;;;;;5050475;28;20025;-44